Tiempo atmosférico en la estación meteorológica de Monterrubio De La Demanda, Burgos (1190 m.)



Fecha
DESCASC
Temp. máxima en grados centígrados (hora)
DESCASC
Temp. mínima en grados centígrados (hora)
DESCASC
Temp. media en grados centígrados
DESCASC
Racha de viento máxima en m/sg (hora)
DESCASC
Velocidad máxima media en intervalos de 10 minutos(hora)
DESCASC
Precipitaciones diarias en mm
DESCASC
Precipitaciones de 00:00 a 06:00 en mm
DESCASC
Precipitaciones de 06:00 a 12:00 en mm
DESCASC
Precipitaciones de 12:00 a 18:00 en mm
DESCASC
Precipitaciones de 18:00 a 24:00 en mm
DESCASC
26-03-2020 5.3 (15:40) -0.7 (23:59) 2.3 15 (02:20) 8.06 (02:00) 0 0 0 0 0
25-03-2020 12.4 (13:10) -2.4 (07:20) 5 10.83 (17:10) 5.28 (15:20) 0 0 0 0 0
24-03-2020 12.5 (14:40) 1.8 (23:59) 7.1 10 (14:30) 7.5 (15:40) 0 0 0 0 0
23-03-2020 11.3 (16:40) 1.3 (07:10) 6.3 10.83 (17:20) 8.33 (17:20) 0 0 0 0 0
22-03-2020 13.2 (14:20) 3.4 (23:50) 8.3 11.94 (16:10) 8.61 (16:10) 0 0 0 0 0
21-03-2020 13.2 (12:50) 0.2 (00:00) 6.7 10.83 (14:20) 7.22 (14:00) 0 0 0 0 0
20-03-2020 12 (15:40) 1.8 (00:00) 6.9 9.72 (17:50) 5.28 (13:50) 0 0 0 0 0
19-03-2020 15 (15:40) 1.7 (00:00) 8.4 7.78 (17:10) 6.11 (12:00) 0 0 0 0 0
18-03-2020 16.5 (15:20) 1 (00:00) 8.8 6.94 (12:10) 5.28 (12:20) 0 0 0 0 0
17-03-2020 10 (16:00) 1.4 (00:00) 5.7 11.67 (13:50) 9.17 (13:50) 0.4 0.2 0 0.2 0
16-03-2020 4.3 (00:00) -0.3 (00:00) 2 19.17 (20:40) 10.83 (20:40) 17.2 4.6 1.2 9 2.4
15-03-2020 16.6 (14:50) -1.7 (-00:0) 7.5 13.06 (12:20) 8.06 (12:00) 6 0 0 2.2 3.8
14-03-2020 17.5 (15:40) 1.2 (00:00) 9.4 8.33 (17:30) 6.39 (10:40) 0 0 0 0 0
13-03-2020 11.7 (14:50) 4 (22:30) 7.8 12.78 (16:50) 10 (16:00) 0 0 0 0 0
12-03-2020 20.3 (16:10) 6.2 (00:00) 13.2 11.67 (19:10) 9.17 (19:20) 0 0 0 0 0
11-03-2020 20 (16:10) 2 (00:00) 11 10.28 (15:00) 6.94 (14:50) 0 0 0 0 0
10-03-2020 16.2 (15:50) 0.8 (00:00) 8.5 10.56 (16:10) 7.5 (15:40) 0 0 0 0 0
09-03-2020 9.1 (15:30) 3.1 (00:00) 6.1 11.11 (12:40) 5.83 (12:40) 0 0 0 0 0
08-03-2020 9.4 (14:40) -2.1 (-00:0) 3.6 10.83 (16:00) 8.33 (16:00) 0.2 0 0.2 0 0
07-03-2020 7.9 (14:30) -0.3 (00:00) 3.8 10.83 (00:20) 5.83 (14:50) 1.2 0.4 0.8 0 0
06-03-2020 3.7 (16:20) -0.3 (00:00) 1.7 16.11 (06:30) 10.56 (06:10) 3.6 2 0 1.6 0
05-03-2020 8.2 (00:00) 1.6 (00:00) 4.9 21.67 (11:00) 14.17 (11:00) 8.6 0.6 6.6 0 1.4
04-03-2020 10.3 (14:10) 4.7 (00:00) 7.5 12.78 (10:20) 9.44 (09:50) 6.8 2.8 4 0 0
03-03-2020 12.6 (16:00) -0.1 (00:00) 6.3 21.11 (15:20) 12.78 (15:50) 16.2 0 14.6 1.6 0
02-03-2020 7.7 (03:40) 0 (00:00) 3.8 29.44 (05:20) 19.17 (05:10) 18.6 15.8 1 1.8 0
01-03-2020 9.7 (16:10) 3.2 (00:00) 6.4 18.89 (17:10) 13.06 (16:10) 21.4 2 4.4 0.2 14.8
29-02-2020 9.6 (16:00) 4.5 (00:00) 7.1 19.44 (16:20) 13.89 (16:20) 0.8 0 0 0.8 0
28-02-2020 13.7 (15:50) -1.6 (-00:0) 6 8.61 (15:00) 6.11 (15:00) 0 0 0 0 0

Gráficas

Temp. máximas Temp. mínimas Temp. medias Precipitaciones Rachas de viento máximas Velocidades máximas media en intervalos de 10 minutos

Datos horarios

Fecha y hora oficial Temperatura (ºC) Velocidad del viento (km/h) Dirección del viento Racha (km/h) Dirección de racha Precipitación (mm) Presión (hPa) Tendencia (hPa) Humedad (%)
2020-03-28 23:00:00 3.6 2 Sudeste 10 Este 0 -- -- 70
2020-03-28 22:00:00 4.7 6 Sudeste 19 Este 0 -- -- 65
2020-03-28 21:00:00 7.1 10 Este 16 Sudeste 0 -- -- 57
2020-03-28 20:00:00 7.5 6 Este 22 Este 0 -- -- 55
2020-03-28 19:00:00 9.9 11 Este 26 Sudeste 0 -- -- 50
2020-03-28 18:00:00 11.8 12 Este 24 Sudeste 0 -- -- 45
2020-03-28 17:00:00 13.6 9 Este 27 Noroeste 0 -- -- 41
2020-03-28 16:00:00 13.4 7 Oeste 24 Oeste 0 -- -- 41
2020-03-28 15:00:00 13.5 5 Oeste 14 Oeste 0 -- -- 35
2020-03-28 14:00:00 13.6 8 Sudoeste 23 Noroeste 0 -- -- 34
2020-03-28 13:00:00 13 9 Sudeste 22 Sudeste 0 -- -- 37
2020-03-28 12:00:00 11.1 12 Este 21 Sudeste 0 -- -- 38
2020-03-28 11:00:00 9.9 4 Norte 8 Oeste 0 -- -- 40
2020-03-28 10:00:00 6.8 0 Calma 4 Oeste 0 -- -- 47
2020-03-28 09:00:00 1.1 0 Calma 3 Oeste 0 -- -- 69
2020-03-28 08:00:00 -2.3 0 Calma 4 Sudeste 0 -- -- 76
2020-03-28 07:00:00 -5.1 4 Sudeste 4 Sudeste 0 -- -- 83
2020-03-28 06:00:00 -3.4 0 Calma 2 Este 0 -- -- 81
2020-03-28 05:00:00 -4.1 0 Calma 3 Este 0 -- -- 82
2020-03-28 04:00:00 -3.5 2 Sudeste 4 Sudeste 0 -- -- 82
2020-03-28 03:00:00 -2.8 0 Calma 8 Noroeste 0 -- -- 81
2020-03-28 02:00:00 -3 2 Oeste 6 Sudeste 0 -- -- 81
2020-03-28 01:00:00 -2.2 6 Noroeste 8 Noroeste 0 -- -- 77
2020-03-28 00:00:00 -1.3 0 Calma 6 Sudeste 0 -- -- 71
2020-03-27 23:00:00 0.5 0 Calma 6 Este 0 -- -- 64
2020-03-27 22:00:00 1.8 4 Sudeste 9 Este 0 -- -- 60
2020-03-27 21:00:00 3.4 6 Este 14 Este 0 -- -- 54
2020-03-27 20:00:00 4.4 8 Este 22 Sudeste 0 -- -- 53
2020-03-27 19:00:00 6.6 17 Sudeste 32 Sudeste 0 -- -- 48
2020-03-27 18:00:00 8.1 24 Sudeste 34 Este 0 -- -- 48
2020-03-27 17:00:00 9 19 Sudeste 32 Sudeste 0 -- -- 47
2020-03-27 16:00:00 9.3 22 Sudeste 35 Sudeste 0 -- -- 47
2020-03-27 15:00:00 9.1 22 Sudeste 33 Sudeste 0 -- -- 40
2020-03-27 14:00:00 9.1 19 Sudeste 38 Sudeste 0 -- -- 33
2020-03-27 13:00:00 8.1 20 Este 35 Sudeste 0 -- -- 34
2020-03-27 12:00:00 6.4 25 Sudeste 37 Sudeste 0 -- -- 45
2020-03-27 11:00:00 3.6 19 Sudeste 33 Sudeste 0 -- -- 57
2020-03-27 10:00:00 1.6 23 Sudeste 34 Sudeste 0 -- -- 69
2020-03-27 09:00:00 -0.1 19 Sudeste 27 Sudeste 0 -- -- 78
2020-03-27 08:00:00 -3.4 2 Sudoeste 14 Sudeste 0 -- -- 86
2020-03-27 07:00:00 -4.3 5 Sudeste 10 Sudeste 0 -- -- 90
2020-03-27 06:00:00 -4.1 0 Calma 4 Norte 0 -- -- 86
2020-03-27 05:00:00 -3.4 0 Calma 7 Este 0 -- -- 81
2020-03-27 04:00:00 -3 5 Este 22 Sudeste 0 -- -- 78
2020-03-27 03:00:00 -2.4 12 Este 19 Este 0 -- -- 69
2020-03-27 02:00:00 -2.3 9 Este 24 Nordeste 0 -- -- 69
2020-03-27 01:00:00 -1.5 23 Este 36 Este 0 -- -- 65
2020-03-27 00:00:00 -0.7 17 Nordeste 31 Nordeste 0 -- -- 66
2020-03-26 23:00:00 0.1 12 Sudeste 31 Sudeste 0 -- -- 69
2020-03-26 22:00:00 0.7 11 Este 26 Este 0 -- -- 70
2020-03-26 21:00:00 1.5 10 Este 27 Este 0 -- -- 71
2020-03-26 20:00:00 1.4 3 Norte 41 Este 0 -- -- 74
2020-03-26 19:00:00 2.3 21 Este 35 Este 0 -- -- 68
2020-03-26 18:00:00 4 9 Norte 21 Norte 0 -- -- 60
2020-03-26 17:00:00 4.3 12 Nordeste 26 Nordeste 0 -- -- 57
2020-03-26 16:00:00 5.1 6 Norte 22 Este 0 -- -- 61
2020-03-26 15:00:00 4.3 12 Este 32 Sudeste 0 -- -- 64
2020-03-26 14:00:00 3.5 10 Norte 43 Nordeste 0 -- -- 64
2020-03-26 13:00:00 3.7 8 Este 35 Norte 0 -- -- 61
2020-03-26 12:00:00 4.1 12 Norte 34 Nordeste 0 -- -- 57
2020-03-26 11:00:00 3.1 13 Norte 36 Norte 0 -- -- 65
2020-03-26 10:00:00 3.6 10 Noroeste 42 Nordeste 0 -- -- 63
2020-03-26 09:00:00 3.2 12 Noroeste 41 Nordeste 0 -- -- 64
2020-03-26 08:00:00 2.9 8 Norte 36 Noroeste 0 -- -- 66
2020-03-26 07:00:00 2.5 5 Oeste 17 Norte 0 -- -- 70
2020-03-26 06:00:00 1.8 4 Este 14 Este 0 -- -- 72
2020-03-26 05:00:00 1.3 5 Este 17 Sudeste 0 -- -- 74
2020-03-26 04:00:00 1.9 7 Este 19 Este 0 -- -- 71
2020-03-26 03:00:00 0.8 6 Este 54 Nordeste 0 -- -- 70
2020-03-26 02:00:00 1.4 29 Este 48 Nordeste 0 -- -- 58
2020-03-26 01:00:00 2.1 13 Este 31 Nordeste 0 -- -- 35
2020-03-26 00:00:00 3.2 11 Nordeste 28 Norte 0 -- -- 32
2020-03-25 23:00:00 3.2 4 Norte 22 Nordeste 0 -- -- 56
2020-03-25 22:00:00 3.7 7 Nordeste 18 Norte 0 -- -- 53
2020-03-25 21:00:00 4 6 Nordeste 14 Nordeste 0 -- -- 55
2020-03-25 20:00:00 5.6 8 Este 22 Este 0 -- -- 55
2020-03-25 19:00:00 9.1 9 Nordeste 28 Norte 0 -- -- 48
2020-03-25 18:00:00 10.6 13 Nordeste 39 Nordeste 0 -- -- 43
2020-03-25 17:00:00 11.9 13 Noroeste 33 Este 0 -- -- 40
2020-03-25 16:00:00 11.6 18 Norte 33 Norte 0 -- -- 40
2020-03-25 15:00:00 11.7 17 Norte 31 Norte 0 -- -- 40
2020-03-25 14:00:00 11.9 13 Este 31 Este 0 -- -- 38
2020-03-25 13:00:00 12 6 Sur 32 Nordeste 0 -- -- 43
2020-03-25 12:00:00 11.1 16 Norte 27 Norte 0 -- -- 34
2020-03-25 11:00:00 9.9 12 Norte 24 Noroeste 0 -- -- 44
2020-03-25 10:00:00 7.5 5 Oeste 13 Noroeste 0 -- -- 75
2020-03-25 09:00:00 2.4 2 Sur 7 Oeste 0 -- -- 95
2020-03-25 08:00:00 -0.9 3 Oeste 5 Noroeste 0 -- -- 99
2020-03-25 07:00:00 -1.7 0 Calma 3 Norte 0 -- -- 100
2020-03-25 06:00:00 -1.8 0 Calma 0 Calma 0 -- -- 98
2020-03-25 05:00:00 -1.5 0 Calma 3 Sudeste 0 -- -- 98
2020-03-25 04:00:00 -1.4 0 Calma 3 Noroeste 0 -- -- 95
2020-03-25 03:00:00 -0.3 0 Calma 4 Noroeste 0 -- -- 95
2020-03-25 02:00:00 0.1 0 Calma 3 Este 0 -- -- 96
2020-03-25 01:00:00 1.2 0 Calma 5 Noroeste 0 -- -- 93
2020-03-25 00:00:00 1.8 0 Calma 5 Norte 0 -- -- 87
2020-03-24 23:00:00 2.5 2 Sudeste 6 Noroeste 0 -- -- 86
2020-03-24 22:00:00 3.7 0 Calma 5 Este 0 -- -- 80
2020-03-24 21:00:00 4.9 0 Calma 16 Este 0 -- -- 76
2020-03-24 20:00:00 7.7 10 Este 22 Este 0 -- -- 65
2020-03-24 19:00:00 9.1 20 Sudeste 31 Sudeste 0 -- -- 58
2020-03-24 18:00:00 10.4 23 Sudeste 33 Sudeste 0 -- -- 59
2020-03-24 17:00:00 11.7 24 Sudeste 35 Sudeste 0 -- -- 54
2020-03-24 16:00:00 11.8 25 Sudeste 36 Sudeste 0 -- -- 54
2020-03-24 15:00:00 11.6 24 Sudeste 36 Sudeste 0 -- -- 57
2020-03-24 14:00:00 12 23 Sudeste 32 Sudeste 0 -- -- 54
2020-03-24 13:00:00 11.2 22 Sudeste 31 Sudeste 0 -- -- 55
2020-03-24 12:00:00 11 23 Sudeste 34 Sudeste 0 -- -- 54
2020-03-24 11:00:00 9.8 16 Sudeste 30 Sudeste 0 -- -- 60
2020-03-24 10:00:00 8.6 17 Sudeste 32 Sudeste 0 -- -- 65
2020-03-24 09:00:00 7.3 4 Oeste 12 Oeste 0 -- -- 80
2020-03-24 08:00:00 4.5 6 Este 12 Este 0 -- -- 98
2020-03-24 07:00:00 2.3 6 Este 13 Este 0 -- -- 100
2020-03-24 06:00:00 3.7 3 Este 9 Este 0 -- -- 95
2020-03-24 05:00:00 2.7 0 Calma 8 Oeste 0 -- -- 96
2020-03-24 04:00:00 3.2 0 Calma 11 Este 0 -- -- 95
2020-03-24 03:00:00 2.4 2 Este 6 Sudeste 0 -- -- 96
2020-03-24 02:00:00 3.1 4 Norte 7 Nordeste 0 -- -- 94
2020-03-24 01:00:00 3.7 3 Noroeste 10 Noroeste 0 -- -- 90
2020-03-24 00:00:00 4.5 4 Nordeste 15 Este 0 -- -- 91
2020-03-23 23:00:00 3.9 6 Este 12 Este 0 -- -- 92
2020-03-23 22:00:00 4.8 4 Sudeste 13 Sudeste 0 -- -- 86
2020-03-23 21:00:00 5.2 5 Sudeste 19 Sudeste 0 -- -- 84
2020-03-23 20:00:00 7.1 13 Este 28 Sudeste 0 -- -- 77
2020-03-23 19:00:00 8 24 Sudeste 33 Sudeste 0 -- -- 74
2020-03-23 18:00:00 9.1 17 Sudeste 39 Sudeste 0 -- -- 70
2020-03-23 17:00:00 10.5 23 Sudeste 34 Sudeste 0 -- -- 61
2020-03-23 16:00:00 10.1 16 Sudeste 32 Este 0 -- -- 66
2020-03-23 15:00:00 9.8 22 Sudeste 33 Sudeste 0 -- -- 67
2020-03-23 14:00:00 9.5 22 Sudeste 35 Sudeste 0 -- -- 64
2020-03-23 13:00:00 10.1 17 Sudeste 31 Este 0 -- -- 57
2020-03-23 12:00:00 9.3 22 Este 34 Sudeste 0 -- -- 59
2020-03-23 11:00:00 8.8 19 Sudeste 27 Sudeste 0 -- -- 67
2020-03-23 10:00:00 8.6 14 Sudeste 22 Sudeste 0 -- -- 78
2020-03-23 09:00:00 5.5 9 Sudeste 14 Este 0 -- -- 93
2020-03-23 08:00:00 4.1 12 Este 18 Este 0 -- -- 96
2020-03-23 07:00:00 1.7 3 Sudeste 10 Este 0 -- -- 96
2020-03-23 06:00:00 3.5 4 Norte 11 Sur 0 -- -- 97
2020-03-23 05:00:00 3.2 4 Este 11 Sudoeste 0 -- -- 96
2020-03-23 04:00:00 1.9 3 Noroeste 13 Este 0 -- -- 97
2020-03-23 03:00:00 2.2 0 Calma 12 Este 0 -- -- 94
2020-03-23 02:00:00 2.1 2 Norte 12 Este 0 -- -- 94
2020-03-23 01:00:00 3.7 3 Este 16 Este 0 -- -- 93
2020-03-23 00:00:00 3.7 10 Este 14 Sudeste 0 -- -- 93
2020-03-22 23:00:00 4.4 6 Este 16 Este 0 -- -- 89
2020-03-22 22:00:00 4.8 6 Este 14 Nordeste 0 -- -- 82
2020-03-22 21:00:00 6.5 9 Este 26 Nordeste 0 -- -- 77
2020-03-22 20:00:00 7.5 18 Nordeste 24 Nordeste 0 -- -- 70
2020-03-22 19:00:00 9.4 13 Este 30 Sudeste 0 -- -- 56
2020-03-22 18:00:00 10 15 Sudeste 32 Sudeste 0 -- -- 59
2020-03-22 17:00:00 11 23 Sudeste 43 Sudeste 0 -- -- 55
2020-03-22 16:00:00 12.5 26 Sudeste 39 Sudeste 0 -- -- 53
2020-03-22 15:00:00 12.8 23 Sudeste 36 Sudeste 0 -- -- 52
2020-03-22 14:00:00 13.1 22 Sudeste 34 Sudeste 0 -- -- 51
2020-03-22 13:00:00 11.9 26 Sudeste 38 Sudeste 0 -- -- 55
2020-03-22 12:00:00 12.5 23 Sudeste 35 Sudeste 0 -- -- 53
2020-03-22 11:00:00 10.8 21 Sudeste 29 Sudeste 0 -- -- 64
2020-03-22 10:00:00 9.4 13 Sudeste 20 Sudeste 0 -- -- 72
2020-03-22 09:00:00 7.3 14 Sudeste 19 Sudeste 0 -- -- 85
2020-03-22 08:00:00 4.3 8 Sudeste 13 Sudeste 0 -- -- 95
2020-03-22 07:00:00 3.8 6 Sudeste 9 Este 0 -- -- 94
2020-03-22 06:00:00 5.1 6 Este 8 Este 0 -- -- 92
2020-03-22 05:00:00 5 3 Este 5 Este 0 -- -- 92
2020-03-22 04:00:00 5.1 0 Calma 5 Este 0 -- -- 91
2020-03-22 03:00:00 5.3 2 Norte 5 Sur 0 -- -- 90
2020-03-22 02:00:00 5.5 3 Norte 6 Norte 0 -- -- 88
2020-03-22 01:00:00 5.3 0 Calma 3 Este 0 -- -- 89
2020-03-22 00:00:00 5.8 0 Calma 2 Oeste 0 -- -- 87
2020-03-21 23:00:00 6 0 Calma 3 Nordeste 0 -- -- 83
2020-03-21 22:00:00 5.7 0 Calma 7 Oeste 0 -- -- 84
2020-03-21 21:00:00 6.2 3 Este 7 Nordeste 0 -- -- 80
2020-03-21 20:00:00 7.6 4 Sudeste 20 Sur 0 -- -- 74
2020-03-21 19:00:00 8.8 12 Sur 21 Sudoeste 0 -- -- 68
2020-03-21 18:00:00 11 12 Sur 21 Sudoeste 0 -- -- 59
2020-03-21 17:00:00 12.2 12 Sudoeste 23 Sudoeste 0 -- -- 58
2020-03-21 16:00:00 11.5 14 Sudoeste 32 Sur 0 -- -- 60
2020-03-21 15:00:00 11.3 19 Sur 39 Sur 0 -- -- 62
2020-03-21 14:00:00 11.4 26 Sur 37 Sudoeste 0 -- -- 64
2020-03-21 13:00:00 13 20 Sur 31 Sur 0 -- -- 61
2020-03-21 12:00:00 12.5 16 Sudeste 28 Sudeste 0 -- -- 57
2020-03-21 11:00:00 10.6 23 Sudeste 30 Sudeste 0 -- -- 65
2020-03-21 10:00:00 8.6 21 Sudeste 29 Sudeste 0 -- -- 77
2020-03-21 09:00:00 6 17 Sudeste 24 Sudeste 0 -- -- 93
2020-03-21 08:00:00 3.1 12 Sudeste 16 Sudeste 0 -- -- 100
2020-03-21 07:00:00 1.2 4 Este 6 Este 0 -- -- 100
2020-03-21 06:00:00 1 2 Oeste 13 Sudoeste 0 -- -- 98
2020-03-21 05:00:00 0.8 5 Nordeste 9 Sudeste 0 -- -- 98
2020-03-21 04:00:00 0.5 3 Sudeste 7 Este 0 -- -- 95
2020-03-21 03:00:00 2.3 3 Oeste 9 Este 0 -- -- 95
2020-03-21 02:00:00 2 0 Calma 12 Este 0 -- -- 94
2020-03-21 01:00:00 2.7 6 Este 8 Este 0 -- -- 96
2020-03-21 00:00:00 3.6 4 Noroeste 8 Sudeste 0 -- -- 92
2020-03-20 23:00:00 4.7 4 Noroeste 7 Sudoeste 0 -- -- 88
2020-03-20 22:00:00 6.1 3 Este 13 Este 0 -- -- 84
2020-03-20 21:00:00 7.2 8 Este 25 Sudeste 0 -- -- 81
2020-03-20 20:00:00 8.4 15 Sudeste 28 Sur 0 -- -- 74
2020-03-20 19:00:00 9.4 13 Sur 24 Sur 0 -- -- 73
2020-03-20 18:00:00 9.5 17 Sur 35 Sudeste 0 -- -- 72
2020-03-20 17:00:00 10.9 12 Sur 23 Sudeste 0 -- -- 68
2020-03-20 16:00:00 11.7 15 Sur 26 Sur 0 -- -- 64
2020-03-20 15:00:00 11.8 14 Sur 26 Sur 0 -- -- 63
2020-03-20 14:00:00 10.9 19 Sur 28 Sudeste 0 -- -- 69
2020-03-20 13:00:00 11.5 19 Sur 28 Sur 0 -- -- 64
2020-03-20 12:00:00 11.5 17 Sudeste 31 Sudeste 0 -- -- 63
2020-03-20 11:00:00 9.9 19 Sudeste 31 Sudeste 0 -- -- 69
2020-03-20 10:00:00 8.3 9 Sur 27 Sudeste 0 -- -- 71
2020-03-20 09:00:00 5.7 4 Sudeste 14 Este 0 -- -- 88
2020-03-20 08:00:00 2.5 0 Calma 10 Sudoeste 0 -- -- 96
2020-03-20 07:00:00 2.1 5 Este 13 Noroeste 0 -- -- 92
2020-03-20 06:00:00 4.9 9 Este 18 Este 0 -- -- 85
2020-03-20 05:00:00 4.6 3 Este 15 Este 0 -- -- 88
2020-03-20 04:00:00 2.9 2 Noroeste 6 Noroeste 0 -- -- 89
2020-03-20 03:00:00 4.3 3 Oeste 17 Este 0 -- -- 83
2020-03-20 02:00:00 4.9 3 Sudeste 15 Este 0 -- -- 81
2020-03-20 01:00:00 6.4 8 Este 19 Este 0 -- -- 69
2020-03-20 00:00:00 6.9 11 Este 17 Este 0 -- -- 68
2020-03-19 23:00:00 6.5 8 Este 16 Este 0 -- -- 66
2020-03-19 22:00:00 8.2 7 Sudeste 19 Sudeste 0 -- -- 62
2020-03-19 21:00:00 9.7 10 Este 18 Sudeste 0 -- -- 56
2020-03-19 20:00:00 9.4 10 Este 18 Sudeste 0 -- -- 52
2020-03-19 19:00:00 10.5 6 Sudeste 19 Sudeste 0 -- -- 51
2020-03-19 18:00:00 12.6 18 Sudeste 28 Sudeste 0 -- -- 43
2020-03-19 17:00:00 13.7 20 Sudeste 26 Sudeste 0 -- -- 46
2020-03-19 16:00:00 14.6 17 Sudeste 22 Sudeste 0 -- -- 35
2020-03-19 15:00:00 14.5 18 Sudeste 27 Sudeste 0 -- -- 36
2020-03-19 14:00:00 13.9 19 Sudeste 27 Este 0 -- -- 44
2020-03-19 13:00:00 13.7 17 Sudeste 26 Sudeste 0 -- -- 42
2020-03-19 12:00:00 13.2 22 Sudeste 27 Sudeste 0 -- -- 44
2020-03-19 11:00:00 12.9 18 Sudeste 23 Sudeste 0 -- -- 49
2020-03-19 10:00:00 11.2 14 Sudeste 17 Sudeste 0 -- -- 66
2020-03-19 09:00:00 5.2 0 Calma 5 Noroeste 0 -- -- 100
2020-03-19 08:00:00 1.7 4 Oeste 6 Oeste 0 -- -- 99
2020-03-19 07:00:00 2.5 0 Calma 3 Oeste 0 -- -- 99
2020-03-19 06:00:00 2.5 0 Calma 4 Noroeste 0 -- -- 99
2020-03-19 05:00:00 2.8 0 Calma 4 Noroeste 0 -- -- 100
2020-03-19 04:00:00 3.1 0 Calma 5 Sudeste 0 -- -- 99
2020-03-19 03:00:00 4 0 Calma 2 Norte 0 -- -- 98
2020-03-19 02:00:00 4.1 0 Calma 5 Oeste 0 -- -- 97
2020-03-19 01:00:00 4.4 0 Calma 5 Norte 0 -- -- 96
2020-03-19 00:00:00 5.4 3 Sudoeste 6 Nordeste 0 -- -- 92
2020-03-18 23:00:00 6.6 0 Calma 2 Oeste 0 -- -- 92
2020-03-18 22:00:00 7.9 0 Calma 5 Sudeste 0 -- -- 89
2020-03-18 21:00:00 9 3 Este 7 Este 0 -- -- 83
2020-03-18 20:00:00 9.8 4 Sudeste 12 Este 0 -- -- 78
2020-03-18 19:00:00 11.7 4 Sudeste 12 Este 0 -- -- 72
2020-03-18 18:00:00 13.2 7 Este 17 Este 0 -- -- 66
2020-03-18 17:00:00 14.1 7 Este 20 Sudeste 0 -- -- 63
2020-03-18 16:00:00 15.1 13 Este 20 Sudeste 0 -- -- 58
2020-03-18 15:00:00 16.2 10 Sudeste 20 Sudeste 0 -- -- 51
2020-03-18 14:00:00 16.1 13 Sudeste 22 Sudeste 0 -- -- 56
2020-03-18 13:00:00 15.5 12 Sudeste 25 Sudeste 0 -- -- 59
2020-03-18 12:00:00 13.6 18 Este 24 Este 0 -- -- 64
2020-03-18 11:00:00 9.9 14 Sudeste 18 Sudeste 0 -- -- 84
2020-03-18 10:00:00 6.8 9 Este 18 Este 0 -- -- 95
2020-03-18 09:00:00 4.5 2 Sudeste 16 Sudeste 0 -- -- 100
2020-03-18 08:00:00 3.4 8 Este 13 Este 0 -- -- 100
2020-03-18 07:00:00 3 5 Este 15 Este 0 -- -- 100
2020-03-18 06:00:00 3.3 9 Sudeste 14 Este 0 -- -- 100
2020-03-18 05:00:00 2 7 Este 11 Sudeste 0 -- -- 100
2020-03-18 04:00:00 1.7 2 Sudeste 6 Oeste 0 -- -- 100
2020-03-18 03:00:00 2.8 0 Calma 6 Sudeste 0 -- -- 100
2020-03-18 02:00:00 2.3 0 Calma 5 Noroeste 0 -- -- 100
2020-03-18 01:00:00 3.1 2 Sudoeste 11 Oeste 0 -- -- 98
2020-03-18 00:00:00 4.3 3 Este 8 Sudeste 0 -- -- 99
2020-03-17 23:00:00 4.9 6 Sudeste 13 Este 0 -- -- 98
2020-03-17 22:00:00 6 12 Sudeste 15 Sudeste 0 -- -- 95
2020-03-17 21:00:00 6.5 8 Este 28 Sudeste 0 -- -- 96
2020-03-17 20:00:00 7.1 21 Sudeste 29 Este 0 -- -- 93
2020-03-17 19:00:00 7.9 19 Este 27 Sudeste 0 -- -- 90
2020-03-17 18:00:00 9 15 Sudeste 30 Sudeste 0 -- -- 86
2020-03-17 17:00:00 9.3 14 Sudeste 28 Sudeste 0 -- -- 86
2020-03-17 16:00:00 10 18 Sudeste 41 Sudeste 0 -- -- 83
2020-03-17 15:00:00 9.3 32 Sudeste 41 Sudeste 0 -- -- 87
2020-03-17 14:00:00 8.4 30 Sudeste 42 Sudeste 0 -- -- 89
2020-03-17 13:00:00 6.8 32 Sudeste 41 Sudeste 0.2 -- -- 99
2020-03-17 12:00:00 5.2 20 Sudeste 28 Sudeste 0 -- -- 100
2020-03-17 11:00:00 4.2 16 Este 24 Este 0 -- -- 100
2020-03-17 10:00:00 3.9 15 Este 27 Este 0 -- -- 100
2020-03-17 09:00:00 3.4 12 Este 26 Este 0 -- -- 100
2020-03-17 08:00:00 3 12 Este 31 Este 0 -- -- 100
2020-03-17 07:00:00 2.8 17 Este 30 Este 0 -- -- 100
2020-03-17 06:00:00 2.6 12 Este 20 Este 0 -- -- 100
2020-03-17 05:00:00 2.5 10 Este 17 Nordeste 0 -- -- 100
2020-03-17 04:00:00 2.3 6 Este 25 Este 0 -- -- 100
2020-03-17 03:00:00 2.2 13 Este 22 Este 0 -- -- 100
2020-03-17 02:00:00 2.1 12 Este 30 Este 0 -- -- 100
2020-03-17 01:00:00 1.7 18 Este 36 Este 0.2 -- -- 100
2020-03-17 00:00:00 1.4 21 Este 42 Este 0 -- -- 100
2020-03-16 23:00:00 1.3 30 Este 47 Este 0.4 -- -- 100
2020-03-16 22:00:00 1.4 31 Sudeste 45 Sudeste 0.6 -- -- 100
2020-03-16 21:00:00 1.7 30 Sudeste 69 Sudeste 1 -- -- 100
2020-03-16 20:00:00 2.8 14 Este 47 Este 0.2 -- -- 100
2020-03-16 19:00:00 2.1 10 Sudeste 43 Sudeste 0.2 -- -- 100
2020-03-16 18:00:00 2.4 24 Este 52 Este 1 -- -- 100
2020-03-16 17:00:00 2.4 30 Sudeste 66 Este 1.6 -- -- 100
2020-03-16 16:00:00 2.6 15 Sudeste 50 Nordeste 1.6 -- -- 100
2020-03-16 15:00:00 1.4 14 Este 54 Sudeste 1.8 -- -- 100
2020-03-16 14:00:00 1.1 16 Sudeste 36 Este 1.8 -- -- 100
2020-03-16 13:00:00 1.2 6 Este 18 Este 1.2 -- -- 100
2020-03-16 12:00:00 0.9 0 Calma 13 Nordeste 0.8 -- -- 100
2020-03-16 11:00:00 0.4 0 Calma 69 Este 0.4 -- -- 100
2020-03-16 10:00:00 0.5 4 Sudeste 64 Este 0 -- -- 100
2020-03-16 09:00:00 0 0 Calma -- -- 0 -- -- 100
2020-03-16 08:00:00 -0.2 0 Calma -- -- 0 -- -- 100
2020-03-16 07:00:00 -0.2 0 Calma 34 Sudeste 0 -- -- 100
2020-03-16 06:00:00 -0.3 9 Este 20 Sudeste 0 -- -- 100
2020-03-16 05:00:00 -0.1 17 Este 28 Sudeste 0 -- -- 100
2020-03-16 04:00:00 -0.1 12 Este 28 Sudeste 0 -- -- 100
2020-03-16 03:00:00 0.3 17 Este 29 Este 0.2 -- -- 99
2020-03-16 02:00:00 1 18 Sudeste 30 Sudeste 1.4 -- -- 99
2020-03-16 01:00:00 2.6 21 Sudeste 31 Sudeste 3 -- -- 98
2020-03-16 00:00:00 4.3 14 Este 37 Sudeste 0.2 -- -- 95
2020-03-15 23:00:00 6.2 21 Nordeste 35 Nordeste 0.8 -- -- 92
2020-03-15 22:00:00 6.2 4 Nordeste 11 Este 0.2 -- -- 97
2020-03-15 21:00:00 6.5 4 Sur 9 Oeste 0 -- -- 95
2020-03-15 20:00:00 7 4 Sudoeste 12 Oeste 0.4 -- -- 93
2020-03-15 19:00:00 7.7 8 Norte 15 Sudeste 2.2 -- -- 89
2020-03-15 18:00:00 8.1 7 Este 35 Sudoeste 2.2 -- -- 80
2020-03-15 17:00:00 14.4 10 Noroeste 35 Noroeste 0 -- -- 50
2020-03-15 16:00:00 15.3 20 Noroeste 36 Noroeste 0 -- -- 47
2020-03-15 15:00:00 16.5 17 Oeste 43 Oeste 0 -- -- 41
2020-03-15 14:00:00 16.1 26 Oeste 40 Oeste 0 -- -- 39
2020-03-15 13:00:00 15.9 24 Oeste 47 Oeste 0 -- -- 45
2020-03-15 12:00:00 14.8 29 Oeste 44 Oeste 0 -- -- 53
2020-03-15 11:00:00 14.5 13 Oeste 27 Oeste 0 -- -- 52
2020-03-15 10:00:00 8.1 3 Oeste 5 Oeste 0 -- -- 62
2020-03-15 09:00:00 3.5 0 Calma 3 Sur 0 -- -- 78
2020-03-15 08:00:00 -0.4 0 Calma 2 Sudeste 0 -- -- 85
2020-03-15 07:00:00 -1.4 0 Calma 3 Oeste 0 -- -- 87
2020-03-15 06:00:00 -0.9 0 Calma 3 Sudeste 0 -- -- 87
2020-03-15 05:00:00 -0.5 0 Calma 2 Este 0 -- -- 85
2020-03-15 04:00:00 -0.7 0 Calma 3 Oeste 0 -- -- 86
2020-03-15 03:00:00 -0.2 0 Calma 3 Sudoeste 0 -- -- 82
2020-03-15 02:00:00 0.4 0 Calma 2 Este 0 -- -- 78
2020-03-15 01:00:00 1.1 0 Calma 2 Este 0 -- -- 77
2020-03-15 00:00:00 1.9 0 Calma 2 Sudeste 0 -- -- 77
2020-03-14 23:00:00 3.5 0 Calma 5 Este 0 -- -- 69
2020-03-14 22:00:00 5.3 3 Este 13 Sudeste 0 -- -- 63
2020-03-14 21:00:00 5.9 11 Sudeste 16 Sudeste 0 -- -- 62
2020-03-14 20:00:00 8.5 12 Sudeste 22 Sudeste 0 -- -- 55
2020-03-14 19:00:00 11.2 19 Sudeste 28 Sudeste 0 -- -- 48
2020-03-14 18:00:00 13.3 23 Sudeste 30 Sudeste 0 -- -- 42
2020-03-14 17:00:00 15 17 Sudeste 28 Sudeste 0 -- -- 36
2020-03-14 16:00:00 16.6 12 Sudeste 18 Sur 0 -- -- 33
2020-03-14 15:00:00 17 6 Oeste 15 Oeste 0 -- -- 29
2020-03-14 14:00:00 16 5 Noroeste 19 Este 0 -- -- 34
2020-03-14 13:00:00 13.6 13 Este 25 Sudeste 0 -- -- 34
2020-03-14 12:00:00 11.8 20 Sudeste 27 Sudeste 0 -- -- 42
2020-03-14 11:00:00 9.2 22 Sudeste 28 Sudeste 0 -- -- 56
2020-03-14 10:00:00 5.1 21 Sudeste 27 Sudeste 0 -- -- 97
2020-03-14 09:00:00 1.9 15 Sudeste 23 Sudeste 0 -- -- 100
2020-03-14 08:00:00 1.3 13 Sudeste 21 Sudeste 0 -- -- 100
2020-03-14 07:00:00 1.5 14 Sudeste 26 Sudeste 0 -- -- 100
2020-03-14 06:00:00 2 10 Sudeste 21 Sudeste 0 -- -- 100
2020-03-14 05:00:00 2.5 18 Sudeste 28 Sudeste 0 -- -- 100
2020-03-14 04:00:00 3.4 16 Sudeste 23 Sudeste 0 -- -- 100
2020-03-14 03:00:00 3.6 12 Sudeste 23 Sudeste 0 -- -- 100
2020-03-14 02:00:00 3.9 18 Sudeste 24 Sudeste 0 -- -- 100
2020-03-14 01:00:00 4.1 14 Sudeste 25 Sudeste 0 -- -- 100
2020-03-14 00:00:00 4.5 21 Sudeste 27 Sudeste 0 -- -- 99
2020-03-13 23:00:00 4 10 Sudeste 20 Sudeste 0 -- -- 99
2020-03-13 22:00:00 4.3 14 Sudeste 26 Sudeste 0 -- -- 97
2020-03-13 21:00:00 4.3 18 Sudeste 32 Sudeste 0 -- -- 97
2020-03-13 20:00:00 4.7 26 Sudeste 35 Sudeste 0 -- -- 95
2020-03-13 19:00:00 5.4 25 Sudeste 42 Sudeste 0 -- -- 93
2020-03-13 18:00:00 6.4 34 Sudeste 44 Sudeste 0 -- -- 89
2020-03-13 17:00:00 8 36 Sudeste 46 Sudeste 0 -- -- 84
2020-03-13 16:00:00 9.9 36 Sudeste 44 Sudeste 0 -- -- 77
2020-03-13 15:00:00 11.4 32 Sudeste 41 Sudeste 0 -- -- 71
2020-03-13 14:00:00 10.5 32 Sudeste 42 Sudeste 0 -- -- 75
2020-03-13 13:00:00 10.3 32 Sudeste 42 Sudeste 0 -- -- 73
2020-03-13 12:00:00 8.9 28 Sudeste 37 Sudeste 0 -- -- 79
2020-03-13 11:00:00 7 27 Sudeste 37 Sudeste 0 -- -- 82
2020-03-13 10:00:00 7.2 26 Sudeste 32 Sudeste 0 -- -- 86
2020-03-13 09:00:00 4.8 22 Este 30 Este 0 -- -- 98
2020-03-13 08:00:00 4.6 15 Este 26 Sudeste 0 -- -- 98
2020-03-13 07:00:00 4.8 18 Este 26 Este 0 -- -- 99
2020-03-13 06:00:00 4.9 17 Este 28 Sudeste 0 -- -- 99
2020-03-13 05:00:00 5 16 Este 30 Sudeste 0 -- -- 99
2020-03-13 04:00:00 5.3 20 Este 39 Sudeste 0 -- -- 98
2020-03-13 03:00:00 5.7 25 Sudeste 35 Sudeste 0 -- -- 97
2020-03-13 02:00:00 6 22 Sudeste 34 Sudeste 0 -- -- 97
2020-03-13 01:00:00 6.2 21 Sudeste 34 Este 0 -- -- 96
2020-03-13 00:00:00 6.5 23 Este 35 Sudeste 0 -- -- 95
2020-03-12 23:00:00 6.9 21 Este 41 Sudeste 0 -- -- 96
2020-03-12 22:00:00 7.2 23 Sudeste 40 Sudeste 0 -- -- 97
2020-03-12 21:00:00 7.4 28 Sudeste 41 Sudeste 0 -- -- 97
2020-03-12 20:00:00 7.8 30 Sudeste 42 Sudeste 0 -- -- 95
2020-03-12 19:00:00 9.1 30 Sudeste 40 Sudeste 0 -- -- 89
2020-03-12 18:00:00 11.5 30 Sudeste 41 Sudeste 0 -- -- 79
2020-03-12 17:00:00 18.9 12 Noroeste 25 Noroeste 0 -- -- 44
2020-03-12 16:00:00 20.1 13 Oeste 32 Oeste 0 -- -- 37
2020-03-12 15:00:00 19.7 18 Noroeste 31 Oeste 0 -- -- 40
2020-03-12 14:00:00 19.3 20 Oeste 35 Oeste 0 -- -- 41
2020-03-12 13:00:00 19.6 22 Oeste 35 Oeste 0 -- -- 43
2020-03-12 12:00:00 19 18 Noroeste 30 Noroeste 0 -- -- 40
2020-03-12 11:00:00 15.3 2 Norte 7 Oeste 0 -- -- 66
2020-03-12 10:00:00 10.2 0 Calma 4 Oeste 0 -- -- 80
2020-03-12 09:00:00 7.7 0 Calma 5 Este 0 -- -- 85
2020-03-12 08:00:00 6.6 0 Calma 2 Este 0 -- -- 84
2020-03-12 07:00:00 6.4 0 Calma 3 Este 0 -- -- 82
2020-03-12 06:00:00 7 0 Calma 2 Nordeste 0 -- -- 80
2020-03-12 05:00:00 7.2 0 Calma 3 Nordeste 0 -- -- 79
2020-03-12 04:00:00 7.7 0 Calma 2 Este 0 -- -- 75
2020-03-12 03:00:00 8.3 0 Calma 3 Noroeste 0 -- -- 73
2020-03-12 02:00:00 8.1 0 Calma 3 Noroeste 0 -- -- 73
2020-03-12 01:00:00 8.9 0 Calma 3 Sudeste 0 -- -- 69
2020-03-12 00:00:00 9.4 0 Calma 5 Norte 0 -- -- 67
2020-03-11 23:00:00 10.5 3 Noroeste 8 Noroeste 0 -- -- 62
2020-03-11 22:00:00 11.2 3 Noroeste 11 Oeste 0 -- -- 58
2020-03-11 21:00:00 12.8 4 Noroeste 9 Noroeste 0 -- -- 53
2020-03-11 20:00:00 14.4 5 Oeste 14 Noroeste 0 -- -- 47
2020-03-11 19:00:00 16.4 11 Noroeste 25 Oeste 0 -- -- 42
2020-03-11 18:00:00 18.3 17 Oeste 33 Oeste 0 -- -- 39
2020-03-11 17:00:00 19.2 24 Oeste 33 Oeste 0 -- -- 36
2020-03-11 16:00:00 19.9 22 Noroeste 36 Oeste 0 -- -- 30
2020-03-11 15:00:00 19.1 23 Oeste 37 Noroeste 0 -- -- 26
2020-03-11 14:00:00 18.7 18 Oeste 30 Oeste 0 -- -- 25
2020-03-11 13:00:00 17.5 14 Noroeste 22 Oeste 0 -- -- 23
2020-03-11 12:00:00 16.4 15 Noroeste 27 Oeste 0 -- -- 28
2020-03-11 11:00:00 13.7 8 Noroeste 13 Noroeste 0 -- -- 51
2020-03-11 10:00:00 8 0 Calma 4 Oeste 0 -- -- 78
2020-03-11 09:00:00 4.1 0 Calma 3 Noroeste 0 -- -- 92
2020-03-11 08:00:00 2 0 Calma 4 Noroeste 0 -- -- 95
2020-03-11 07:00:00 2.2 0 Calma -- -- 0 -- -- 95
2020-03-11 06:00:00 2.8 0 Calma 3 Noroeste 0 -- -- 93
2020-03-11 05:00:00 3.5 2 Noroeste 4 Noroeste 0 -- -- 92
2020-03-11 04:00:00 4 3 Noroeste 4 Noroeste 0 -- -- 90
2020-03-11 03:00:00 3.7 0 Calma 3 Noroeste 0 -- -- 89
2020-03-11 02:00:00 4.4 0 Calma 5 Oeste 0 -- -- 86
2020-03-11 01:00:00 5.3 3 Noroeste 6 Noroeste 0 -- -- 84
2020-03-11 00:00:00 5.8 4 Oeste 6 Oeste 0 -- -- 84
2020-03-10 23:00:00 7 6 Noroeste 11 Oeste 0 -- -- 81
2020-03-10 22:00:00 9 4 Noroeste 12 Noroeste 0 -- -- 74
2020-03-10 21:00:00 11.2 4 Noroeste 6 Noroeste 0 -- -- 67
2020-03-10 20:00:00 11.6 0 Calma 15 Noroeste 0 -- -- 67
2020-03-10 19:00:00 14.5 14 Oeste 28 Noroeste 0 -- -- 59
2020-03-10 18:00:00 15.9 13 Noroeste 35 Oeste 0 -- -- 55
2020-03-10 17:00:00 15.9 22 Oeste 38 Oeste 0 -- -- 54
2020-03-10 16:00:00 16.2 24 Oeste 33 Oeste 0 -- -- 53
2020-03-10 15:00:00 15.4 16 Oeste 26 Oeste 0 -- -- 54
2020-03-10 14:00:00 14.6 15 Oeste 29 Oeste 0 -- -- 53
2020-03-10 13:00:00 14.3 17 Oeste 26 Oeste 0 -- -- 54
2020-03-10 12:00:00 12.2 6 Noroeste 12 Oeste 0 -- -- 56
2020-03-10 11:00:00 9.9 3 Noroeste 8 Noroeste 0 -- -- 62
2020-03-10 10:00:00 5.5 0 Calma 8 Oeste 0 -- -- 79
2020-03-10 09:00:00 2.3 3 Noroeste 8 Noroeste 0 -- -- 86
2020-03-10 08:00:00 0.9 3 Oeste 7 Oeste 0 -- -- 84
2020-03-10 07:00:00 1.7 3 Noroeste 7 Oeste 0 -- -- 80
2020-03-10 06:00:00 2.4 5 Noroeste 11 Oeste 0 -- -- 79
2020-03-10 05:00:00 1 2 Oeste 9 Norte 0 -- -- 81
2020-03-10 04:00:00 1.5 3 Noroeste 8 Oeste 0 -- -- 80
2020-03-10 03:00:00 1.5 2 Noroeste 8 Norte 0 -- -- 78
2020-03-10 02:00:00 4 4 Noroeste 10 Norte 0 -- -- 64
2020-03-10 01:00:00 4.8 5 Noroeste 14 Norte 0 -- -- 58
2020-03-10 00:00:00 5.3 6 Noroeste 19 Noroeste 0 -- -- 56
2020-03-09 23:00:00 5.2 10 Noroeste 22 Noroeste 0 -- -- 60
2020-03-09 22:00:00 5.8 15 Oeste 26 Oeste 0 -- -- 63
2020-03-09 21:00:00 5.9 11 Oeste 25 Noroeste 0 -- -- 67
2020-03-09 20:00:00 6.2 5 Oeste 16 Noroeste 0 -- -- 69
2020-03-09 19:00:00 7.1 11 Noroeste 24 Noroeste 0 -- -- 63
2020-03-09 18:00:00 7.7 20 Noroeste 31 Oeste 0 -- -- 51
2020-03-09 17:00:00 8 5 Noroeste 26 Nordeste 0 -- -- 56
2020-03-09 16:00:00 8.7 9 Nordeste 28 Nordeste 0 -- -- 53
2020-03-09 15:00:00 8.5 16 Nordeste 28 Norte 0 -- -- 54
2020-03-09 14:00:00 7.5 16 Norte 30 Norte 0 -- -- 57
2020-03-09 13:00:00 6.8 13 Nordeste 40 Nordeste 0 -- -- 60
2020-03-09 12:00:00 6.7 12 Norte 29 Norte 0 -- -- 64
2020-03-09 11:00:00 5.4 17 Norte 31 Nordeste 0 -- -- 66
2020-03-09 10:00:00 4.5 12 Nordeste 27 Nordeste 0 -- -- 76
2020-03-09 09:00:00 3.6 6 Noroeste 22 Oeste 0 -- -- 78
2020-03-09 08:00:00 3.3 10 Norte 21 Nordeste 0 -- -- 82
2020-03-09 07:00:00 3.4 14 Norte 22 Nordeste 0 -- -- 83
2020-03-09 06:00:00 3.7 13 Nordeste 21 Nordeste 0 -- -- 85
2020-03-09 05:00:00 4.1 8 Norte 15 Norte 0 -- -- 87
2020-03-09 04:00:00 3.6 3 Noroeste 14 Noroeste 0 -- -- 92
2020-03-09 03:00:00 4.1 5 Noroeste 17 Noroeste 0 -- -- 92
2020-03-09 02:00:00 4.9 11 Noroeste 24 Noroeste 0 -- -- 91
2020-03-09 01:00:00 5.2 14 Noroeste 22 Noroeste 0 -- -- 93
2020-03-09 00:00:00 5.9 16 Noroeste 27 Oeste 0 -- -- 91
2020-03-08 23:00:00 6.4 13 Oeste 20 Oeste 0 -- -- 90
2020-03-08 22:00:00 6.4 10 Noroeste 21 Oeste 0 -- -- 84
2020-03-08 21:00:00 6.7 18 Oeste 29 Noroeste 0 -- -- 81
2020-03-08 20:00:00 7.3 14 Noroeste 32 Noroeste 0 -- -- 82
2020-03-08 19:00:00 8.1 23 Noroeste 38 Noroeste 0 -- -- 78
2020-03-08 18:00:00 9 24 Oeste 37 Oeste 0 -- -- 76
2020-03-08 17:00:00 9 20 Oeste 34 Oeste 0 -- -- 71
2020-03-08 16:00:00 9.3 30 Oeste 39 Oeste 0 -- -- 71
2020-03-08 15:00:00 8.9 17 Oeste 34 Oeste 0 -- -- 68
2020-03-08 14:00:00 8.6 24 Noroeste 34 Oeste 0 -- -- 71
2020-03-08 13:00:00 8.5 17 Oeste 26 Oeste 0 -- -- 73
2020-03-08 12:00:00 7.2 19 Oeste 30 Oeste 0 -- -- 80
2020-03-08 11:00:00 5.9 8 Oeste 18 Oeste 0 -- -- 90
2020-03-08 10:00:00 3.5 6 Noroeste 9 Noroeste 0.2 -- -- 100
2020-03-08 09:00:00 -0.3 3 Oeste 5 Noroeste 0 -- -- 99
2020-03-08 08:00:00 -1 5 Noroeste 7 Norte 0 -- -- 100
2020-03-08 07:00:00 -1.6 3 Oeste 4 Oeste 0 -- -- 99
2020-03-08 06:00:00 -1.9 2 Oeste 4 Oeste 0 -- -- 99
2020-03-08 05:00:00 -1.4 2 Noroeste 4 Oeste 0 -- -- 99
2020-03-08 04:00:00 -1.9 0 Calma 5 Oeste 0 -- -- 97
2020-03-08 03:00:00 -1.1 2 Noroeste 4 Noroeste 0 -- -- 98
2020-03-08 02:00:00 -1.2 2 Noroeste 4 Noroeste 0 -- -- 97
2020-03-08 01:00:00 -0.9 0 Calma 6 Oeste 0 -- -- 96
2020-03-08 00:00:00 -0.3 0 Calma 8 Oeste 0 -- -- 94
2020-03-07 23:00:00 0.5 4 Noroeste 8 Noroeste 0 -- -- 94
2020-03-07 22:00:00 0.8 0 Calma 6 Norte 0 -- -- 91
2020-03-07 21:00:00 2.1 2 Norte 7 Norte 0 -- -- 89
2020-03-07 20:00:00 3.8 2 Noroeste 10 Noroeste 0 -- -- 82
2020-03-07 19:00:00 6.2 11 Noroeste 23 Noroeste 0 -- -- 76
2020-03-07 18:00:00 7.6 14 Noroeste 22 Oeste 0 -- -- 71
2020-03-07 17:00:00 6.8 7 Nordeste 25 Norte 0 -- -- 75
2020-03-07 16:00:00 6.4 15 Nordeste 31 Norte 0 -- -- 76
2020-03-07 15:00:00 6.7 20 Norte 33 Norte 0 -- -- 75
2020-03-07 14:00:00 6.9 16 Norte 29 Norte 0 -- -- 79
2020-03-07 13:00:00 6.4 12 Norte 31 Norte 0 -- -- 82
2020-03-07 12:00:00 4.5 10 Noroeste 19 Noroeste 0 -- -- 96
2020-03-07 11:00:00 3.5 8 Noroeste 29 Noroeste 0 -- -- 94
2020-03-07 10:00:00 3.3 10 Noroeste 31 Noroeste 0 -- -- 97
2020-03-07 09:00:00 1.3 12 Oeste 18 Oeste 0.4 -- -- 99
2020-03-07 08:00:00 0.7 11 Oeste 24 Noroeste 0.4 -- -- 98
2020-03-07 07:00:00 0.9 16 Oeste 27 Oeste 0 -- -- 97
2020-03-07 06:00:00 1.4 17 Oeste 24 Oeste 0.2 -- -- 95
2020-03-07 05:00:00 0.8 9 Noroeste 28 Oeste 0.2 -- -- 96
2020-03-07 04:00:00 1 10 Noroeste 24 Noroeste 0 -- -- 90
2020-03-07 03:00:00 1.3 14 Oeste 29 Noroeste 0 -- -- 83
2020-03-07 02:00:00 1.2 17 Oeste 35 Noroeste 0 -- -- 76
2020-03-07 01:00:00 1.2 20 Noroeste 39 Oeste 0 -- -- 81
2020-03-07 00:00:00 1.4 27 Oeste 56 Noroeste 0 -- -- 82
2020-03-06 23:00:00 1.3 18 Noroeste 54 Noroeste 0 -- -- 82
2020-03-06 22:00:00 0.9 11 Noroeste 39 Noroeste 0 -- -- 81
2020-03-06 21:00:00 0.8 17 Noroeste 49 Noroeste 0 -- -- 80
2020-03-06 20:00:00 0.8 18 Norte 57 Noroeste 0 -- -- 77
2020-03-06 19:00:00 0.9 23 Noroeste 53 Noroeste 0 -- -- 79
2020-03-06 18:00:00 2 17 Noroeste 55 Noroeste 0 -- -- 74
2020-03-06 17:00:00 3.1 20 Noroeste 53 Noroeste 0 -- -- 68
2020-03-06 16:00:00 3 28 Noroeste 55 Noroeste 0 -- -- 67
2020-03-06 15:00:00 2.3 18 Noroeste 52 Oeste 0 -- -- 73
2020-03-06 14:00:00 2.4 21 Noroeste 43 Norte 0.2 -- -- 76
2020-03-06 13:00:00 1.2 17 Noroeste 40 Noroeste 1.4 -- -- 77
2020-03-06 12:00:00 -0.1 13 Noroeste 46 Noroeste 0 -- -- 95
2020-03-06 11:00:00 -0.1 13 Noroeste 42 Noroeste 0 -- -- 96
2020-03-06 10:00:00 1.2 22 Noroeste 42 Oeste 0 -- -- 87
2020-03-06 09:00:00 0.7 16 Noroeste 34 Oeste 0 -- -- 88
2020-03-06 08:00:00 0.9 23 Noroeste 54 Noroeste 0 -- -- 86
2020-03-06 07:00:00 1.1 31 Noroeste 58 Noroeste 0 -- -- 95
2020-03-06 06:00:00 1.5 32 Noroeste 57 Noroeste 0.6 -- -- 96
2020-03-06 05:00:00 1.1 30 Noroeste 41 Noroeste 1.4 -- -- 100
2020-03-06 04:00:00 0.5 15 Oeste 22 Oeste 0 -- -- 99
2020-03-06 03:00:00 0.9 14 Oeste 33 Oeste 0 -- -- 96
2020-03-06 02:00:00 1.3 18 Noroeste 31 Noroeste 0 -- -- 98
2020-03-06 01:00:00 1.8 15 Oeste 23 Noroeste 0 -- -- 97
2020-03-06 00:00:00 1.9 9 Noroeste 16 Noroeste 0 -- -- 95
2020-03-05 23:00:00 1.7 5 Noroeste 12 Noroeste 0 -- -- 94
2020-03-05 22:00:00 2 8 Noroeste 12 Noroeste 0 -- -- 92
2020-03-05 21:00:00 2.5 3 Noroeste 15 Norte 0 -- -- 88
2020-03-05 20:00:00 3.8 4 Nordeste 22 Nordeste 0 -- -- 86
2020-03-05 19:00:00 4.8 11 Nordeste 32 Oeste 1.4 -- -- 87
2020-03-05 18:00:00 6.6 17 Oeste 37 Oeste 0 -- -- 86
2020-03-05 17:00:00 6.1 32 Oeste 51 Oeste 0 -- -- 84
2020-03-05 16:00:00 7.6 31 Noroeste 57 Noroeste 0 -- -- 75
2020-03-05 15:00:00 6.9 37 Noroeste 59 Noroeste 0 -- -- 78
2020-03-05 14:00:00 6.3 31 Noroeste 62 Oeste 0 -- -- 81
2020-03-05 13:00:00 6.4 42 Noroeste 65 Noroeste 0 -- -- 82
2020-03-05 12:00:00 5.2 34 Oeste 69 Oeste 0.8 -- -- 95
2020-03-05 11:00:00 6 51 Noroeste 78 Noroeste 2.4 -- -- 95
2020-03-05 10:00:00 7.3 38 Oeste 64 Oeste 1.2 -- -- 97
2020-03-05 09:00:00 7.2 36 Oeste 54 Oeste 0.4 -- -- 96
2020-03-05 08:00:00 7 21 Oeste 49 Noroeste 1.2 -- -- 98
2020-03-05 07:00:00 7.3 28 Oeste 57 Oeste 0.6 -- -- 98
2020-03-05 06:00:00 7.7 35 Oeste 55 Oeste 0.2 -- -- 98
2020-03-05 05:00:00 7.8 30 Oeste 55 Oeste 0.4 -- -- 98
2020-03-05 04:00:00 8 30 Oeste 43 Noroeste 0 -- -- 97
2020-03-05 03:00:00 8.1 22 Noroeste 38 Oeste 0 -- -- 95
2020-03-05 02:00:00 8.2 18 Noroeste 30 Noroeste 0 -- -- 95
2020-03-05 01:00:00 8.1 25 Noroeste 43 Oeste 0 -- -- 95
2020-03-05 00:00:00 8.2 18 Noroeste 31 Oeste 0 -- -- 94
2020-03-04 23:00:00 8.3 19 Oeste 35 Oeste 0 -- -- 92
2020-03-04 22:00:00 8.5 17 Noroeste 35 Oeste 0 -- -- 92
2020-03-04 21:00:00 8.8 23 Oeste 33 Oeste 0 -- -- 91
2020-03-04 20:00:00 8.9 21 Oeste 29 Noroeste 0 -- -- 90
2020-03-04 19:00:00 9 17 Oeste 26 Oeste 0 -- -- 88
2020-03-04 18:00:00 9 13 Oeste 30 Oeste 0 -- -- 87
2020-03-04 17:00:00 9.4 20 Oeste 31 Noroeste 0 -- -- 85
2020-03-04 16:00:00 9.8 21 Oeste 33 Noroeste 0 -- -- 82
2020-03-04 15:00:00 9.7 25 Oeste 37 Oeste 0 -- -- 83
2020-03-04 14:00:00 9.7 22 Noroeste 33 Noroeste 0 -- -- 85
2020-03-04 13:00:00 9.4 25 Oeste 37 Oeste 0 -- -- 90
2020-03-04 12:00:00 8.8 25 Oeste 43 Noroeste 0 -- -- 95
2020-03-04 11:00:00 8.1 28 Noroeste 46 Noroeste 0 -- -- 99
2020-03-04 10:00:00 7.9 32 Noroeste 45 Oeste 0.2 -- -- 100
2020-03-04 09:00:00 7.8 24 Noroeste 40 Oeste 1 -- -- 100
2020-03-04 08:00:00 7.8 21 Oeste 41 Oeste 0 -- -- 100
2020-03-04 07:00:00 6.8 2 Norte 7 Noroeste 2.8 -- -- 99
2020-03-04 06:00:00 5.7 4 Oeste 10 Noroeste 0.8 -- -- 98
2020-03-04 05:00:00 4.7 2 Noroeste 9 Oeste 1.2 -- -- 97
2020-03-04 04:00:00 4.8 6 Noroeste 14 Norte 0.6 -- -- 94
2020-03-04 03:00:00 5.4 9 Norte 17 Noroeste 0.2 -- -- 90
2020-03-04 02:00:00 6.1 9 Noroeste 21 Noroeste 0 -- -- 84
2020-03-04 01:00:00 6.3 18 Oeste 28 Oeste 0 -- -- 85
2020-03-04 00:00:00 6.4 15 Noroeste 25 Noroeste 0 -- -- 86
2020-03-03 23:00:00 6.4 8 Noroeste 13 Noroeste 0 -- -- 86
2020-03-03 22:00:00 6.9 5 Noroeste 14 Oeste 0 -- -- 83
2020-03-03 21:00:00 7.8 10 Oeste 25 Oeste 0 -- -- 79
2020-03-03 20:00:00 8.5 13 Noroeste 37 Noroeste 0 -- -- 76
2020-03-03 19:00:00 9 19 Noroeste 44 Noroeste 0 -- -- 73
2020-03-03 18:00:00 10.6 27 Noroeste 61 Noroeste 0 -- -- 66
2020-03-03 17:00:00 11.8 39 Noroeste 64 Noroeste 0 -- -- 64
2020-03-03 16:00:00 12.6 41 Noroeste 76 Noroeste 0 -- -- 65
2020-03-03 15:00:00 10.9 39 Noroeste 64 Noroeste 0 -- -- 93
2020-03-03 14:00:00 7.2 28 Noroeste 42 Noroeste 0 -- -- 100
2020-03-03 13:00:00 -- 20 Noroeste 41 Noroeste 1.6 -- -- --
2020-03-03 12:00:00 4 20 Noroeste 42 Noroeste 6.4 -- -- 100
2020-03-03 11:00:00 2.9 22 Noroeste 35 Noroeste 5.6 -- -- 100
2020-03-03 10:00:00 1.5 19 Noroeste 30 Norte 2.6 -- -- 100
2020-03-03 09:00:00 0.4 0 Calma -- -- 0 -- -- 100
2020-03-03 08:00:00 0 0 Calma 25 Noroeste 0 -- -- 100
2020-03-03 07:00:00 0 18 Noroeste 35 Oeste 0 -- -- 100
2020-03-03 06:00:00 0.2 20 Noroeste 31 Noroeste 0 -- -- 99
2020-03-03 05:00:00 0.5 19 Noroeste 42 Oeste 0 -- -- 97
2020-03-03 04:00:00 0.8 16 Oeste 24 Oeste 0 -- -- 95
2020-03-03 03:00:00 0.6 10 Oeste 27 Oeste 0 -- -- 94
2020-03-03 02:00:00 0.2 10 Noroeste 25 Oeste 0 -- -- 93
2020-03-03 01:00:00 0 13 Noroeste 20 Oeste 0 -- -- 92
2020-03-03 00:00:00 0.1 13 Oeste 26 Oeste 0 -- -- 91
2020-03-02 23:00:00 0.2 16 Oeste 25 Oeste 0 -- -- 89
2020-03-02 22:00:00 0.4 9 Oeste 18 Oeste 0 -- -- 82
2020-03-02 21:00:00 1 11 Noroeste 39 Noroeste 0 -- -- 70
2020-03-02 20:00:00 1.7 23 Noroeste 37 Noroeste 0 -- -- 64
2020-03-02 19:00:00 2.4 23 Noroeste 44 Oeste 0 -- -- 63
2020-03-02 18:00:00 3.8 30 Noroeste 54 Noroeste 0 -- -- 57
2020-03-02 17:00:00 4 36 Noroeste 65 Noroeste 0 -- -- 60
2020-03-02 16:00:00 3.8 36 Noroeste 57 Noroeste 1.6 -- -- 73
2020-03-02 15:00:00 0.3 22 Noroeste 48 Noroeste 0.2 -- -- 97
2020-03-02 14:00:00 1.3 28 Noroeste 77 Oeste 0 -- -- 89
2020-03-02 13:00:00 3.9 38 Noroeste 55 Oeste 0 -- -- 75
2020-03-02 12:00:00 3.2 39 Noroeste 59 Noroeste 0.6 -- -- 87
2020-03-02 11:00:00 3 30 Oeste 49 Oeste 0 -- -- 88
2020-03-02 10:00:00 2.6 28 Oeste 45 Oeste 0 -- -- 95
2020-03-02 09:00:00 2.6 31 Oeste 67 Noroeste 0.2 -- -- 95
2020-03-02 08:00:00 3.1 46 Noroeste 80 Oeste 0 -- -- 95
2020-03-02 07:00:00 4.1 39 Noroeste 78 Noroeste 0.2 -- -- 93
2020-03-02 06:00:00 5.2 55 Noroeste 106 Noroeste 2.4 -- -- 91
2020-03-02 05:00:00 7.4 62 Noroeste 104 Oeste 2 -- -- 95
2020-03-02 04:00:00 7.6 59 Oeste 100 Oeste 0.4 -- -- 93
2020-03-02 03:00:00 7.5 61 Oeste 92 Oeste 1.4 -- -- 95
2020-03-02 02:00:00 7.3 50 Noroeste 89 Oeste 4.2 -- -- 96
2020-03-02 01:00:00 7.6 53 Noroeste 88 Noroeste 5.4 -- -- 94
2020-03-02 00:00:00 6.6 23 Oeste 65 Oeste 5.6 -- -- 96
2020-03-01 23:00:00 5.9 20 Noroeste 40 Oeste 5.8 -- -- 97
2020-03-01 22:00:00 5.7 20 Noroeste 54 Noroeste 3.4 -- -- 93
2020-03-01 21:00:00 7.9 36 Noroeste 68 Noroeste 0 -- -- 64
2020-03-01 20:00:00 8.6 32 Noroeste 54 Oeste 0 -- -- 64
2020-03-01 19:00:00 9.1 28 Noroeste 59 Noroeste 0 -- -- 67
2020-03-01 18:00:00 9.5 33 Noroeste 68 Noroeste 0 -- -- 64
2020-03-01 17:00:00 9.6 33 Noroeste 65 Oeste 0 -- -- 67
2020-03-01 16:00:00 9.5 43 Oeste 63 Oeste 0 -- -- 64
2020-03-01 15:00:00 9.3 41 Oeste 63 Noroeste 0 -- -- 66
2020-03-01 14:00:00 9.3 44 Oeste 64 Oeste 0.2 -- -- 65
2020-03-01 13:00:00 7.8 31 Oeste 51 Oeste 0 -- -- 80
2020-03-01 12:00:00 6.3 30 Noroeste 55 Noroeste 0 -- -- 92
2020-03-01 11:00:00 5.6 30 Noroeste 59 Noroeste 0 -- -- 96
2020-03-01 10:00:00 4.9 38 Noroeste 57 Noroeste 1.2 -- -- 97
2020-03-01 09:00:00 4.2 33 Noroeste 55 Noroeste 1.4 -- -- 98
2020-03-01 08:00:00 3.8 26 Noroeste 48 Oeste 1.4 -- -- 98
2020-03-01 07:00:00 3.3 19 Noroeste 49 Noroeste 0.4 -- -- 98
2020-03-01 06:00:00 3.3 28 Noroeste 57 Noroeste 0.8 -- -- 98
2020-03-01 05:00:00 3.3 31 Noroeste 60 Oeste 0.8 -- -- 97
2020-03-01 04:00:00 3.5 32 Noroeste 60 Oeste 0.4 -- -- 96
2020-03-01 03:00:00 3.9 32 Noroeste 59 Oeste 0 -- -- 93
2020-03-01 02:00:00 4.2 24 Noroeste 40 Noroeste 0 -- -- 90
2020-03-01 01:00:00 4.1 23 Noroeste 41 Oeste 0 -- -- 88
2020-03-01 00:00:00 4.5 21 Noroeste 39 Noroeste 0 -- -- 81
2020-02-29 23:00:00 4.8 21 Noroeste 44 Noroeste 0 -- -- 78
2020-02-29 22:00:00 5.1 28 Noroeste 47 Noroeste 0 -- -- 77
2020-02-29 21:00:00 5.4 28 Noroeste 48 Oeste 0 -- -- 71
2020-02-29 20:00:00 6.1 33 Noroeste 53 Noroeste 0 -- -- 70
2020-02-29 19:00:00 6.5 30 Noroeste 57 Noroeste 0 -- -- 66
2020-02-29 18:00:00 7.3 37 Noroeste 63 Oeste 0 -- -- 67
2020-02-29 17:00:00 8.1 43 Noroeste 70 Noroeste 0 -- -- 70
2020-02-29 16:00:00 9.6 40 Oeste 59 Noroeste 0 -- -- 76
2020-02-29 15:00:00 9.2 41 Oeste 63 Oeste 0.2 -- -- 85
2020-02-29 14:00:00 8.4 36 Noroeste 58 Oeste 0.6 -- -- 91
2020-02-29 13:00:00 8.3 33 Noroeste 66 Oeste 0 -- -- 86
2020-02-29 12:00:00 7.4 32 Noroeste 63 Noroeste 0 -- -- 87
2020-02-29 11:00:00 7 36 Noroeste 54 Noroeste 0 -- -- 86
2020-02-29 10:00:00 5.8 26 Noroeste 44 Oeste 0 -- -- 84
2020-02-29 09:00:00 5.5 23 Noroeste 57 Noroeste 0 -- -- 79
2020-02-29 08:00:00 5.6 27 Noroeste 46 Noroeste 0 -- -- 72
2020-02-29 07:00:00 5.9 18 Noroeste 44 Noroeste 0 -- -- 69
2020-02-29 06:00:00 7.4 35 Noroeste 66 Oeste 0 -- -- 66
2020-02-29 05:00:00 7.4 31 Noroeste 57 Noroeste 0 -- -- 66
2020-02-29 04:00:00 7.6 36 Noroeste 52 Noroeste 0 -- -- 63
2020-02-29 03:00:00 7.6 27 Noroeste 41 Oeste 0 -- -- 63
2020-02-29 02:00:00 7.7 20 Noroeste 36 Oeste 0 -- -- 64
2020-02-29 01:00:00 7.5 16 Noroeste 31 Noroeste 0 -- -- 59
2020-02-29 00:00:00 6.5 12 Noroeste 20 Noroeste 0 -- -- 63
2020-02-28 23:00:00 4.4 8 Noroeste 18 Norte 0 -- -- 64
2020-02-28 22:00:00 3.8 3 Sudeste 7 Este 0 -- -- 62
2020-02-28 21:00:00 5.9 0 Calma 9 Noroeste 0 -- -- 54
2020-02-28 20:00:00 8.6 3 Nordeste 6 Sudeste 0 -- -- 43
2020-02-28 19:00:00 10.8 2 Norte 14 Oeste 0 -- -- 40
2020-02-28 18:00:00 13.4 10 Noroeste 19 Oeste 0 -- -- 33
2020-02-28 17:00:00 13.4 13 Noroeste 25 Oeste 0 -- -- 30
2020-02-28 16:00:00 13.6 18 Noroeste 27 Oeste 0 -- -- 33
2020-02-28 15:00:00 13.3 22 Oeste 31 Oeste 0 -- -- 34
2020-02-28 14:00:00 12 11 Noroeste 24 Noroeste 0 -- -- 39
2020-02-28 13:00:00 10.8 13 Noroeste 30 Oeste 0 -- -- 46
2020-02-28 12:00:00 9.5 18 Oeste 24 Noroeste 0 -- -- 51
2020-02-28 11:00:00 7.1 10 Oeste 13 Oeste 0 -- -- 70
2020-02-28 10:00:00 1.9 0 Calma 4 Oeste 0 -- -- 91
2020-02-28 09:00:00 -1.3 0 Calma 6 Oeste 0 -- -- 94
2020-02-28 08:00:00 -1.2 4 Noroeste 7 Oeste 0 -- -- 93
2020-02-28 07:00:00 -1 3 Oeste 8 Noroeste 0 -- -- 91
2020-02-28 06:00:00 -1.1 0 Calma 8 Oeste 0 -- -- 90
2020-02-28 05:00:00 1.6 5 Noroeste 10 Noroeste 0 -- -- 87
2020-02-28 04:00:00 2.6 0 Calma 5 Nordeste 0 -- -- 82
2020-02-28 03:00:00 2.9 0 Calma 4 Este 0 -- -- 80
2020-02-28 02:00:00 3.1 2 Sudeste 15 Noroeste 0 -- -- 78
2020-02-28 01:00:00 4 6 Oeste 18 Noroeste 0 -- -- 74
2020-02-28 00:00:00 6.7 14 Norte 22 Norte 0 -- -- 65